createdAt,value
2018-12-24T00:02:09.851Z,6.67
2018-12-24T00:04:40.285Z,11.55
2018-12-24T00:07:10.814Z,9.65
2018-12-24T00:09:41.317Z,12.98
2018-12-24T00:12:11.794Z,7.43
2018-12-24T00:14:42.291Z,8.45
2018-12-24T00:17:12.741Z,8.93
2018-12-24T00:19:43.243Z,4.87
2018-12-24T00:22:14.026Z,8.37
2018-12-24T00:24:44.448Z,6.60
2018-12-24T00:27:14.991Z,10.60
2018-12-24T00:29:45.533Z,9.13
2018-12-24T00:32:15.927Z,7.33
2018-12-24T00:34:46.530Z,8.37
2018-12-24T00:37:17.072Z,6.93
2018-12-24T00:39:47.560Z,14.67
2018-12-24T00:42:17.996Z,8.80
2018-12-24T00:44:48.580Z,11.30
2018-12-24T00:47:19.065Z,12.17
2018-12-24T00:49:49.527Z,13.00
2018-12-24T00:52:20.182Z,12.33
2018-12-24T00:54:50.762Z,11.53
2018-12-24T00:57:21.295Z,10.77
2018-12-24T00:59:51.825Z,12.80
2018-12-24T01:02:22.509Z,18.83
2018-12-24T01:04:53.019Z,13.27
2018-12-24T01:07:24.137Z,12.00
2018-12-24T01:09:54.641Z,10.90
2018-12-24T01:12:25.548Z,15.97
2018-12-24T01:14:55.993Z,9.50
2018-12-24T01:17:26.517Z,10.63
2018-12-24T01:19:56.950Z,13.07
2018-12-24T01:22:27.534Z,8.27
2018-12-24T01:24:58.009Z,12.03
2018-12-24T01:27:28.471Z,12.20
2018-12-24T01:29:58.969Z,12.70
2018-12-24T01:32:29.429Z,10.70
2018-12-24T01:34:59.896Z,11.87
2018-12-24T01:37:30.450Z,9.67
2018-12-24T01:40:00.914Z,6.63
2018-12-24T01:42:33.560Z,9.00
2018-12-24T01:45:03.319Z,8.17
2018-12-24T01:47:33.703Z,10.90
2018-12-24T01:50:04.163Z,6.40
2018-12-24T01:52:34.754Z,6.30
2018-12-24T01:55:05.212Z,7.70
2018-12-24T01:57:35.595Z,10.27
2018-12-24T02:00:06.206Z,11.63
2018-12-24T02:02:36.645Z,10.30
2018-12-24T02:05:07.309Z,11.03
2018-12-24T02:07:37.929Z,9.07
2018-12-24T02:10:08.501Z,8.00
2018-12-24T02:12:42.304Z,8.93
2018-12-24T02:15:10.897Z,6.47
2018-12-24T02:17:41.318Z,6.30
2018-12-24T02:20:11.809Z,8.70
2018-12-24T02:22:42.331Z,10.40
2018-12-24T02:25:12.795Z,12.97
2018-12-24T02:27:43.224Z,9.50
2018-12-24T02:30:13.830Z,12.13
2018-12-24T02:32:44.301Z,13.83
2018-12-24T02:35:14.719Z,10.47
2018-12-24T02:37:45.294Z,9.47
2018-12-24T02:40:15.810Z,11.70
2018-12-24T02:42:52.223Z,11.83
2018-12-24T02:45:18.365Z,15.70
2018-12-24T02:47:48.895Z,11.23
2018-12-24T02:50:19.412Z,12.07
2018-12-24T02:52:49.975Z,14.83
2018-12-24T02:55:20.381Z,12.43
2018-12-24T02:57:50.822Z,15.23
2018-12-24T03:00:21.420Z,13.13
2018-12-24T03:02:51.834Z,12.13
2018-12-24T03:05:22.331Z,13.47
2018-12-24T03:07:53.043Z,10.40
2018-12-24T03:10:23.522Z,11.97
2018-12-24T03:13:02.304Z,8.87
2018-12-24T03:15:27.232Z,10.10
2018-12-24T03:17:57.659Z,9.47
2018-12-24T03:20:28.129Z,15.87
2018-12-24T03:22:58.678Z,10.63
2018-12-24T03:25:29.162Z,8.07
2018-12-24T03:27:59.593Z,10.43
2018-12-24T03:30:30.085Z,8.93
2018-12-24T03:33:00.644Z,7.47
2018-12-24T03:35:31.162Z,7.33
2018-12-24T03:38:01.812Z,9.13
2018-12-24T03:40:32.298Z,8.90
2018-12-24T03:43:12.181Z,12.47
2018-12-24T03:45:34.780Z,11.97
2018-12-24T03:48:05.257Z,11.53
2018-12-24T03:50:35.727Z,9.33
2018-12-24T03:53:06.298Z,10.83
2018-12-24T03:55:36.768Z,9.50
2018-12-24T03:58:07.320Z,6.97
2018-12-24T04:00:37.869Z,6.17
2018-12-24T04:03:08.279Z,7.73
2018-12-24T04:05:38.738Z,6.50
2018-12-24T04:08:09.368Z,6.73
2018-12-24T04:10:40.040Z,7.87
2018-12-24T04:13:10.507Z,6.53
2018-12-24T04:15:41.030Z,5.23
2018-12-24T04:18:11.477Z,4.87
2018-12-24T04:20:41.870Z,6.13
2018-12-24T04:23:12.534Z,4.90
2018-12-24T04:25:42.985Z,5.17
2018-12-24T04:28:13.405Z,5.37
2018-12-24T04:30:43.957Z,7.23
2018-12-24T04:33:14.402Z,5.47
2018-12-24T04:35:44.847Z,5.10
2018-12-24T04:38:15.405Z,4.67
2018-12-24T04:40:45.866Z,4.63
2018-12-24T04:43:16.263Z,4.83
2018-12-24T04:45:46.802Z,3.63
2018-12-24T04:48:17.248Z,3.73
2018-12-24T04:50:47.637Z,4.60
2018-12-24T04:53:18.219Z,7.97
2018-12-24T04:55:48.634Z,5.30
2018-12-24T04:58:19.073Z,3.57
2018-12-24T05:00:49.547Z,4.03
2018-12-24T05:03:20.087Z,3.63
2018-12-24T05:05:50.471Z,4.33
2018-12-24T05:08:21.269Z,4.50
2018-12-24T05:10:51.704Z,4.90
2018-12-24T05:13:22.377Z,6.10
2018-12-24T05:15:52.922Z,3.97
2018-12-24T05:18:23.398Z,5.13
2018-12-24T05:20:53.889Z,4.63
2018-12-24T05:23:24.612Z,5.53
2018-12-24T05:25:55.025Z,6.33
2018-12-24T05:28:26.302Z,4.47
2018-12-24T05:30:56.834Z,5.00
2018-12-24T05:33:27.269Z,3.73
2018-12-24T05:35:57.670Z,3.87
2018-12-24T05:38:28.329Z,3.93
2018-12-24T05:40:58.748Z,3.87
2018-12-24T05:43:29.267Z,5.80
2018-12-24T05:45:59.879Z,4.23
2018-12-24T05:48:30.370Z,7.33
2018-12-24T05:51:00.761Z,8.40
2018-12-24T05:53:31.292Z,6.47
2018-12-24T05:56:01.734Z,5.10
2018-12-24T05:58:32.130Z,6.00
2018-12-24T06:01:02.636Z,4.53
2018-12-24T06:03:33.087Z,6.60
2018-12-24T06:06:03.491Z,6.53
2018-12-24T06:08:34.105Z,6.47
2018-12-24T06:11:04.541Z,5.70
2018-12-24T06:13:34.984Z,7.13
2018-12-24T06:16:05.676Z,7.47
2018-12-24T06:18:36.127Z,5.43
2018-12-24T06:21:06.596Z,7.00
2018-12-24T06:23:37.192Z,6.67
2018-12-24T06:26:07.640Z,7.13
2018-12-24T06:28:38.065Z,6.30
2018-12-24T06:31:08.513Z,8.73
2018-12-24T06:33:38.972Z,8.67
2018-12-24T06:36:09.421Z,7.77
2018-12-24T06:38:40.048Z,6.40
2018-12-24T06:41:10.469Z,5.93
2018-12-24T06:43:40.938Z,4.90
2018-12-24T06:46:11.474Z,8.10
2018-12-24T06:48:41.861Z,5.83
2018-12-24T06:51:12.351Z,5.57
2018-12-24T06:53:42.906Z,4.83
2018-12-24T06:56:13.497Z,4.27
2018-12-24T06:58:44.341Z,5.37
2018-12-24T07:01:14.807Z,4.63
2018-12-24T07:03:45.250Z,3.80
2018-12-24T07:06:15.712Z,6.60
2018-12-24T07:08:46.257Z,4.00
2018-12-24T07:11:16.734Z,5.03
2018-12-24T07:13:47.794Z,3.73
2018-12-24T07:16:18.396Z,3.67
2018-12-24T07:18:49.075Z,3.30
2018-12-24T07:21:19.503Z,4.20
2018-12-24T07:23:50.021Z,4.77
2018-12-24T07:26:20.464Z,4.37
2018-12-24T07:28:58.792Z,3.30
2018-12-24T07:31:22.795Z,8.17
2018-12-24T07:33:54.513Z,3.30
2018-12-24T07:36:24.980Z,5.47
2018-12-24T07:38:55.545Z,5.30
2018-12-24T07:41:26.021Z,4.47
2018-12-24T07:43:56.399Z,4.57
2018-12-24T07:46:26.886Z,3.40
2018-12-24T07:48:57.336Z,4.63
2018-12-24T07:51:27.781Z,12.03
2018-12-24T07:53:58.369Z,8.27
2018-12-24T07:56:28.793Z,8.00
2018-12-24T07:58:59.256Z,5.80
2018-12-24T08:01:29.758Z,5.87
2018-12-24T08:04:00.201Z,4.30
2018-12-24T08:06:30.596Z,5.60
2018-12-24T08:09:01.148Z,2.67
2018-12-24T08:11:31.622Z,1.90
2018-12-24T08:14:02.014Z,1.83
2018-12-24T08:16:32.506Z,3.87
2018-12-24T08:19:02.962Z,2.10
2018-12-24T08:21:36.109Z,2.13
2018-12-24T08:24:06.677Z,2.60
2018-12-24T08:26:37.131Z,1.70
2018-12-24T08:29:07.568Z,2.47
2018-12-24T08:31:38.111Z,5.00
2018-12-24T08:34:08.547Z,3.63
2018-12-24T08:36:38.944Z,5.53
2018-12-24T08:39:09.532Z,5.50
2018-12-24T08:41:40.013Z,3.50
2018-12-24T08:44:10.430Z,4.67
2018-12-24T08:46:40.945Z,4.03
2018-12-24T08:49:11.409Z,3.33
2018-12-24T08:51:41.798Z,6.67
2018-12-24T08:54:12.412Z,5.27
2018-12-24T08:56:42.810Z,2.77
2018-12-24T08:59:13.244Z,2.73
2018-12-24T09:01:43.716Z,3.23
2018-12-24T09:04:14.209Z,3.30
2018-12-24T09:06:44.651Z,4.47
2018-12-24T09:09:15.203Z,4.00
2018-12-24T09:11:45.655Z,3.03
2018-12-24T09:14:16.117Z,3.50
2018-12-24T09:16:46.568Z,3.30
2018-12-24T09:19:17.049Z,5.50
2018-12-24T09:21:47.440Z,3.30
2018-12-24T09:24:18.453Z,3.40
2018-12-24T09:26:48.913Z,3.00
2018-12-24T09:29:19.361Z,2.37
2018-12-24T09:31:49.906Z,2.80
2018-12-24T09:34:20.392Z,2.70
2018-12-24T09:36:50.892Z,3.83
2018-12-24T09:39:21.534Z,2.90
2018-12-24T09:41:52.992Z,3.23
2018-12-24T09:44:23.453Z,2.33
2018-12-24T09:46:53.932Z,2.70
2018-12-24T09:49:24.347Z,3.40
2018-12-24T09:51:54.812Z,2.60
2018-12-24T09:54:25.377Z,2.57
2018-12-24T09:56:55.824Z,3.47
2018-12-24T09:59:26.289Z,5.10
2018-12-24T10:01:56.779Z,2.53
2018-12-24T10:04:28.918Z,2.30
2018-12-24T10:07:00.683Z,2.27
2018-12-24T10:09:31.309Z,2.40
2018-12-24T10:12:01.811Z,2.27
2018-12-24T10:14:32.222Z,2.30
2018-12-24T10:17:02.755Z,2.67
2018-12-24T10:19:33.216Z,1.90
2018-12-24T10:22:03.707Z,2.50
2018-12-24T10:24:34.280Z,2.87
2018-12-24T10:27:05.281Z,2.70
2018-12-24T10:29:35.770Z,2.87
2018-12-24T10:32:06.282Z,3.47
2018-12-24T10:34:36.735Z,2.77
2018-12-24T10:37:07.207Z,3.30
2018-12-24T10:39:37.769Z,12.20
2018-12-24T10:42:08.206Z,3.93
2018-12-24T10:44:38.605Z,2.73
2018-12-24T10:47:09.152Z,5.63
2018-12-24T10:49:39.608Z,5.70
2018-12-24T10:52:10.070Z,7.23
2018-12-24T10:54:40.639Z,6.33
2018-12-24T10:57:11.085Z,6.90
2018-12-24T10:59:41.523Z,8.30
2018-12-24T11:02:12.089Z,10.03
2018-12-24T11:04:42.476Z,9.93
2018-12-24T11:07:12.955Z,7.67
2018-12-24T11:09:43.534Z,10.57
2018-12-24T11:12:14.069Z,8.00
2018-12-24T11:14:44.458Z,13.90
2018-12-24T11:17:15.029Z,11.40
2018-12-24T11:19:45.449Z,9.77
2018-12-24T11:22:15.868Z,10.00
2018-12-24T11:24:46.478Z,13.07
2018-12-24T11:27:16.949Z,9.07
2018-12-24T11:29:47.794Z,7.40
2018-12-24T11:32:18.325Z,4.37
2018-12-24T11:34:48.759Z,4.27
2018-12-24T11:37:19.173Z,5.33
2018-12-24T11:39:49.750Z,4.13
2018-12-24T11:42:20.158Z,5.77
2018-12-24T11:44:50.630Z,10.77
2018-12-24T11:47:21.155Z,6.63
2018-12-24T11:49:51.618Z,6.57
2018-12-24T11:52:22.057Z,5.87
2018-12-24T11:54:52.649Z,7.07
2018-12-24T11:57:23.085Z,10.10
2018-12-24T11:59:53.525Z,9.90
2018-12-24T12:02:24.057Z,10.03
2018-12-24T12:04:54.493Z,13.73
2018-12-24T12:07:24.936Z,10.77
2018-12-24T12:09:55.502Z,12.33
2018-12-24T12:12:25.972Z,10.27
2018-12-24T12:14:56.368Z,11.27
2018-12-24T12:17:26.900Z,11.23
2018-12-24T12:19:57.376Z,7.87
2018-12-24T12:22:27.822Z,6.60
2018-12-24T12:24:58.414Z,11.17
2018-12-24T12:27:28.811Z,13.83
2018-12-24T12:29:59.250Z,13.83
2018-12-24T12:32:30.312Z,18.33
2018-12-24T12:35:00.838Z,13.03
2018-12-24T12:37:32.588Z,11.53
2018-12-24T12:40:03.164Z,8.97
2018-12-24T12:42:33.554Z,11.57
2018-12-24T12:45:04.007Z,11.77
2018-12-24T12:47:34.519Z,12.70
2018-12-24T12:50:05.206Z,12.07
2018-12-24T12:52:35.743Z,10.37
2018-12-24T12:55:07.161Z,10.47
2018-12-24T12:57:37.569Z,11.37
2018-12-24T13:00:08.028Z,14.57
2018-12-24T13:02:38.566Z,11.87
2018-12-24T13:05:08.979Z,9.43
2018-12-24T13:07:39.384Z,10.90
2018-12-24T13:10:10.562Z,12.10
2018-12-24T13:12:41.294Z,8.93
2018-12-24T13:15:12.240Z,6.17
2018-12-24T13:19:56.209Z,6.00
2018-12-24T13:22:26.613Z,7.67
2018-12-24T13:24:56.967Z,6.57
2018-12-24T13:27:27.488Z,15.17
2018-12-24T13:29:57.773Z,12.90
2018-12-24T13:32:28.201Z,13.90
2018-12-24T13:34:59.186Z,16.83
2018-12-24T13:37:29.503Z,24.90
2018-12-24T13:39:59.838Z,17.10
2018-12-24T13:42:30.458Z,21.10
2018-12-24T13:45:00.889Z,15.13
2018-12-24T13:47:31.533Z,21.20
2018-12-24T13:50:04.092Z,21.33
2018-12-24T13:52:34.471Z,17.43
2018-12-24T13:55:04.872Z,15.73
2018-12-24T13:57:35.259Z,23.40
2018-12-24T14:00:05.729Z,23.27
2018-12-24T14:02:36.159Z,15.63
2018-12-24T14:05:06.641Z,22.27
2018-12-24T14:07:36.931Z,15.47
2018-12-24T14:10:08.471Z,17.70
2018-12-24T14:12:38.933Z,14.33
2018-12-24T14:15:09.258Z,21.23
2018-12-24T14:17:39.724Z,22.07
2018-12-24T14:20:10.065Z,25.13
2018-12-24T14:22:40.386Z,16.63
2018-12-24T14:25:10.804Z,13.07
2018-12-24T14:27:41.141Z,15.10
2018-12-24T14:30:12.263Z,12.63
2018-12-24T14:32:42.724Z,9.43
2018-12-24T14:35:14.510Z,13.57
2018-12-24T14:37:45.416Z,9.47
2018-12-24T14:40:15.875Z,10.13
2018-12-24T14:42:46.198Z,8.13
2018-12-24T14:45:16.567Z,8.83
2018-12-24T14:47:46.894Z,11.10
2018-12-24T14:50:17.270Z,9.83
2018-12-24T14:52:47.715Z,11.23
2018-12-24T14:55:18.025Z,8.40
2018-12-24T14:57:48.371Z,5.70
2018-12-24T15:00:18.836Z,13.97
2018-12-24T15:02:49.245Z,11.30
2018-12-24T15:05:19.661Z,12.77
2018-12-24T15:07:50.134Z,10.40
2018-12-24T15:10:20.467Z,11.37
2018-12-24T15:12:52.120Z,7.90
2018-12-24T15:15:22.556Z,12.37
2018-12-24T15:17:52.922Z,8.03
2018-12-24T15:20:23.362Z,7.70
2018-12-24T15:22:53.720Z,11.80
2018-12-24T15:25:24.078Z,6.13
2018-12-24T15:27:54.491Z,11.23
2018-12-24T15:30:24.932Z,7.43
2018-12-24T15:32:55.255Z,8.33
2018-12-24T15:35:25.675Z,13.83
2018-12-24T15:37:55.954Z,6.47
2018-12-24T15:40:26.698Z,10.80
2018-12-24T15:42:57.113Z,11.80
2018-12-24T15:45:27.450Z,5.70
2018-12-24T15:47:57.743Z,10.80
2018-12-24T15:50:28.156Z,8.18
2018-12-24T15:52:58.468Z,11.12
2018-12-24T15:55:28.828Z,8.23
2018-12-24T15:57:59.256Z,12.68
2018-12-24T16:00:29.639Z,7.87
2018-12-24T16:03:00.010Z,10.23
2018-12-24T16:05:30.441Z,8.45
2018-12-24T16:08:00.739Z,8.40
2018-12-24T16:10:31.103Z,4.47
2018-12-24T16:13:01.661Z,9.63
2018-12-24T16:15:32.020Z,4.80
2018-12-24T16:18:02.318Z,6.87
2018-12-24T16:20:32.729Z,4.37
2018-12-24T16:23:03.015Z,3.65
2018-12-24T16:25:33.441Z,6.75
2018-12-24T16:28:03.950Z,8.43
2018-12-24T16:30:34.291Z,8.65
2018-12-24T16:33:23.738Z,9.08
2018-12-24T16:35:53.994Z,5.45
2018-12-24T16:38:24.358Z,6.62
2018-12-24T16:40:55.725Z,5.25
2018-12-24T16:43:26.016Z,10.95
2018-12-24T16:45:56.382Z,8.83
2018-12-24T16:48:26.849Z,8.20
2018-12-24T16:50:57.184Z,4.45
2018-12-24T16:53:27.505Z,4.47
2018-12-24T16:55:57.909Z,6.87
2018-12-24T16:58:28.211Z,6.67
2018-12-24T17:00:58.542Z,6.87
2018-12-24T17:03:29.030Z,8.93
2018-12-24T17:05:59.339Z,13.30
2018-12-24T17:08:29.774Z,8.20
2018-12-24T17:11:00.159Z,4.97
2018-12-24T17:13:30.550Z,2.00
2018-12-24T17:16:00.889Z,8.08
2018-12-24T17:18:31.365Z,10.58
2018-12-24T17:21:01.637Z,5.80
2018-12-24T17:23:31.983Z,8.05
2018-12-24T17:26:02.323Z,7.30
2018-12-24T17:28:32.681Z,4.35
2018-12-24T17:31:03.034Z,10.30
2018-12-24T17:33:33.544Z,6.80
2018-12-24T17:36:05.142Z,4.65
2018-12-24T17:38:36.621Z,4.62
2018-12-24T17:41:06.899Z,7.35
2018-12-24T17:43:37.524Z,5.75
2018-12-24T17:46:07.917Z,9.28
2018-12-24T17:48:38.248Z,7.33
2018-12-24T17:51:08.588Z,5.12
2018-12-24T17:53:39.075Z,5.90
2018-12-24T17:56:09.407Z,7.28
2018-12-24T17:58:39.672Z,7.60
2018-12-24T18:01:11.427Z,6.10
2018-12-24T18:03:41.769Z,8.18
2018-12-24T18:06:12.067Z,10.05
2018-12-24T18:08:42.521Z,6.35
2018-12-24T18:11:12.812Z,4.42
2018-12-24T18:13:43.108Z,11.03
2018-12-24T18:16:13.550Z,6.42
2018-12-24T18:18:43.824Z,13.65
2018-12-24T18:21:14.165Z,13.03
2018-12-24T18:23:44.565Z,6.37
2018-12-24T18:26:14.858Z,2.90
2018-12-24T18:28:45.173Z,5.97
2018-12-24T18:31:19.919Z,9.13
2018-12-24T18:33:47.298Z,8.03
2018-12-24T18:36:17.657Z,5.70
2018-12-24T18:38:48.117Z,4.42
2018-12-24T18:41:18.487Z,10.08
2018-12-24T18:43:49.063Z,4.03
2018-12-24T18:46:19.455Z,3.55
2018-12-24T18:48:49.743Z,6.03
2018-12-24T18:51:20.092Z,2.40
2018-12-24T18:53:50.548Z,3.05
2018-12-24T18:56:21.427Z,14.38
2018-12-24T18:58:51.761Z,7.17
2018-12-24T19:01:22.239Z,27.10
2018-12-24T19:03:52.552Z,3.85
2018-12-24T19:06:22.891Z,8.83
2018-12-24T19:08:53.383Z,6.12
2018-12-24T19:11:23.757Z,8.28
2018-12-24T19:13:54.369Z,3.30
2018-12-24T19:16:25.265Z,2.72
2018-12-24T19:18:55.658Z,5.67
2018-12-24T19:21:26.076Z,6.47
2018-12-24T19:23:56.487Z,5.42
2018-12-24T19:26:26.779Z,5.60
2018-12-24T19:28:57.125Z,9.58
2018-12-24T19:31:27.540Z,4.97
2018-12-24T19:33:57.829Z,8.05
2018-12-24T19:36:28.256Z,4.17
2018-12-24T19:38:58.738Z,2.65
2018-12-24T19:41:29.138Z,7.83
2018-12-24T19:43:59.907Z,7.37
2018-12-24T19:46:30.319Z,7.90
2018-12-24T19:49:00.642Z,3.55
2018-12-24T19:51:30.983Z,4.85
2018-12-24T19:54:01.390Z,6.25
2018-12-24T19:56:31.695Z,14.15
2018-12-24T19:59:02.049Z,6.45
2018-12-24T20:01:32.461Z,7.42
2018-12-24T20:04:02.780Z,4.55
2018-12-24T20:06:33.152Z,4.53
2018-12-24T20:09:04.731Z,3.83
2018-12-24T20:11:35.086Z,3.08
2018-12-24T20:14:05.383Z,6.58
2018-12-24T20:16:35.788Z,6.55
2018-12-24T20:19:06.138Z,11.68
2018-12-24T20:21:36.532Z,4.97
2018-12-24T20:24:07.339Z,6.70
2018-12-24T20:26:37.685Z,6.70
2018-12-24T20:29:08.019Z,6.75
2018-12-24T20:31:38.403Z,4.30
2018-12-24T20:34:08.734Z,4.28
2018-12-24T20:36:39.025Z,4.25
2018-12-24T20:39:10.833Z,4.17
2018-12-24T20:41:41.143Z,3.50
2018-12-24T20:44:12.099Z,2.30
2018-12-24T20:46:42.525Z,4.42
2018-12-24T20:49:12.848Z,7.53
2018-12-24T20:51:43.116Z,4.40
2018-12-24T20:54:13.608Z,5.08
2018-12-24T20:56:43.897Z,7.83
2018-12-24T20:59:14.240Z,5.15
2018-12-24T21:01:44.625Z,3.40
2018-12-24T21:04:14.988Z,2.92
2018-12-24T21:06:45.332Z,4.08
2018-12-24T21:09:15.835Z,5.40
2018-12-24T21:11:46.181Z,3.00
2018-12-24T21:14:16.499Z,4.95
2018-12-24T21:16:46.859Z,13.45
2018-12-24T21:19:17.230Z,8.30
2018-12-24T21:21:47.579Z,7.47
2018-12-24T21:24:18.028Z,2.33
2018-12-24T21:26:48.320Z,10.55
2018-12-24T21:29:18.686Z,2.95
2018-12-24T21:31:49.091Z,6.17
2018-12-24T21:34:19.413Z,5.10
2018-12-24T21:36:49.762Z,4.28
2018-12-24T21:39:20.279Z,4.83
2018-12-24T21:41:50.620Z,15.13
2018-12-24T21:44:20.986Z,14.58
2018-12-24T21:46:51.854Z,10.05
2018-12-24T21:49:22.122Z,8.80
2018-12-24T21:51:52.406Z,10.55
2018-12-24T21:54:22.873Z,12.90
2018-12-24T21:56:53.167Z,3.30
2018-12-24T21:59:23.504Z,4.78
2018-12-24T22:01:53.888Z,5.25
2018-12-24T22:04:24.184Z,11.18
2018-12-24T22:06:54.520Z,3.10
2018-12-24T22:09:25.011Z,5.05
2018-12-24T22:11:55.331Z,5.37
2018-12-24T22:14:25.703Z,4.40
2018-12-24T22:16:56.045Z,10.20
2018-12-24T22:19:26.381Z,17.57
2018-12-24T22:21:56.732Z,8.68
2018-12-24T22:24:27.195Z,13.10
2018-12-24T22:26:57.530Z,3.08
2018-12-24T22:29:27.834Z,8.98
2018-12-24T22:31:59.459Z,4.92
2018-12-24T22:34:29.810Z,4.42
2018-12-24T22:37:00.095Z,5.28
2018-12-24T22:39:30.611Z,9.95
2018-12-24T22:42:00.943Z,6.12
2018-12-24T22:44:31.230Z,5.83
2018-12-24T22:47:04.207Z,3.55
2018-12-24T22:49:34.034Z,8.40
2018-12-24T22:52:04.498Z,6.25
2018-12-24T22:54:35.325Z,7.15
2018-12-24T22:57:05.618Z,8.58
2018-12-24T22:59:36.234Z,13.88
2018-12-24T23:02:06.529Z,7.37
2018-12-24T23:04:37.929Z,4.75
2018-12-24T23:07:08.373Z,6.53
2018-12-24T23:09:38.640Z,6.35
2018-12-24T23:12:08.996Z,6.65
2018-12-24T23:14:39.560Z,6.37
2018-12-24T23:17:09.839Z,6.40
2018-12-24T23:19:40.213Z,8.40
2018-12-24T23:22:11.168Z,12.00
2018-12-24T23:24:41.661Z,6.72
2018-12-24T23:27:11.973Z,4.70
2018-12-24T23:29:42.428Z,10.65
2018-12-24T23:32:12.788Z,6.90
2018-12-24T23:34:43.069Z,10.47
2018-12-24T23:37:13.486Z,8.70
2018-12-24T23:39:43.828Z,8.63
2018-12-24T23:42:14.168Z,8.50
2018-12-24T23:44:44.619Z,16.90
2018-12-24T23:47:15.202Z,8.20
2018-12-24T23:49:45.556Z,9.07
2018-12-24T23:52:16.180Z,7.17
2018-12-24T23:54:46.544Z,5.20
2018-12-24T23:57:17.946Z,5.47
2018-12-24T23:59:48.258Z,7.00
